Flight Track Log - Related Links

Times and Time Zones

All times are in EDT time to prevent confusion due to time zone crossing. See the EJA951 flight status page for this flight to view local times or setup timezone preferences in your user account.

Time Position Orientation Groundspeed Altitude Reporting Facility
EDT Latitude Longitude Course Direction KTS MPH feet Rate Location/Type
Tue 08:41:55 AM 32.9500 -96.8000 52° Northeast 209 241 2,000  Level Dallas / Fort Worth TRACON
Tue 08:42:37 AM 32.9833 -96.7500 52° Northeast 214 246 2,000  Level Dallas / Fort Worth TRACON
Tue 08:43:37 AM 32.9667 -96.6833 107° East 218 251 2,000 1,350 Level Dallas / Fort Worth TRACON
Tue 08:44:37 AM 32.9500 -96.6167 107° East 243 280 4,700 3,150 Climbing Dallas / Fort Worth TRACON
Tue 08:45:37 AM 32.8833 -96.6000 168° South 272 313 8,300 3,369 Climbing Dallas / Fort Worth TRACON
Tue 08:46:47 AM 32.7911 -96.6103 185° South 303 349 12,000 3,092 Climbing Fort Worth Center
Tue 08:47:47 AM 32.7228 -96.6775 220° Southwest 317 365 15,000 2,400 Climbing Fort Worth Center
Tue 08:48:47 AM 32.6272 -96.7597 216° Southwest 370 426 16,800 1,500 Climbing Fort Worth Center
Tue 08:49:47 AM 32.5522 -96.8267 217° Southwest 391 450 18,000 1,250 Climbing Fort Worth Center
Tue 08:50:47 AM 32.4525 -96.9111 216° Southwest 398 458 19,300 1,190 Climbing Fort Worth Center
Tue 08:51:48 AM 32.3631 -96.9928 218° Southwest 403 464 20,400 1,300 Climbing Fort Worth Center
Tue 08:52:47 AM 32.2733 -97.0547 210° Southwest 415 478 21,900 1,513 Climbing Fort Worth Center
Tue 08:53:47 AM 32.1586 -97.0650 184° South 403 464 23,400 1,200 Climbing Fort Worth Center
Tue 08:56:02 AM 31.8844 -97.0728 181° South 439 505 25,800 796 Climbing Houston Center
Tue 08:57:03 AM 31.7558 -97.0758 181° South 452 520 26,000 98 Climbing Houston Center
Tue 08:58:05 AM 31.6189 -97.0808 182° South 479 551 26,000  Level Houston Center
Tue 08:59:06 AM 31.4817 -97.1006 187° South 490 564 26,000  Level Houston Center
Tue 09:00:08 AM 31.3494 -97.1531 199° South 496 571 26,000  Level Houston Center
Tue 09:01:09 AM 31.2175 -97.2061 199° South 496 571 26,000  Level Houston Center
Tue 09:02:11 AM 31.0836 -97.2583 198° South 501 577 26,000  Level Houston Center
Tue 09:03:12 AM 30.9553 -97.3208 203° Southwest 539 620 26,000  Level Houston Center
Tue 09:04:14 AM 30.8011 -97.3672 194° South 506 582 26,000  Level Houston Center
Tue 09:05:15 AM 30.6694 -97.4175 198° South 496 571 26,000  Level Houston Center
Tue 09:06:17 AM 30.5358 -97.4694 199° South 500 575 26,000 -829 Level Houston Center
Tue 09:07:18 AM 30.4050 -97.5197 198° South 491 565 24,300 -2,098 Descending Houston Center
Tue 09:08:20 AM 30.2872 -97.5928 208° Southwest 477 549 21,700 -2,609 Descending Houston Center
Tue 09:09:13 AM 30.1803 -97.6664 211° Southwest 434 499 19,300 -2,361 Descending Houston Center
Tue 09:09:21 AM 30.1786 -97.6683 225° Southwest 452 520 19,300 -2,229 Level Houston Center
Tue 09:10:23 AM 30.0592 -97.7503 211° Southwest 424 488 16,700 -2,438 Descending Houston Center
Tue 09:10:25 AM 30.0606 -97.7517 319° Northwest 418 481 16,700 -2,226 Level Houston Center
Tue 09:11:25 AM 29.9564 -97.8200 210° Southwest 427 491 14,400 -2,459 Descending Houston Center
Tue 09:11:26 AM 29.9500 -97.8261 220° Southwest 427 491 14,200 -2,361 Descending Houston Center
Tue 09:12:26 AM 29.8728 -97.9192 226° Southwest 395 455 12,000 -2,164 Descending Houston Center
Tue 09:12:27 AM 29.8728 -97.9181 90° East 391 450 12,000 -1,161 Level Houston Center
Tue 09:13:28 AM 29.8308 -98.0178 244° Southwest 341 392 10,800 -1,082 Descending Houston Center
Tue 09:14:29 AM 29.7956 -98.1031 245° Southwest 297 342 9,800 -1,000 Descending Houston Center
Tue 09:14:34 AM 29.7919 -98.1089 234° Southwest 284 327 9,700 -968 Descending Houston Center
Tue 09:15:31 AM 29.7578 -98.1942 245° Southwest 293 337 8,800 -885 Descending Houston Center
Tue 09:15:35 AM 29.7581 -98.1947 300° West 290 334 8,800 -1,742 Level Houston Center
Tue 09:16:33 AM 29.7539 -98.2900 267° West 302 348 7,000 -2,000 Descending Houston Center
Tue 09:16:35 AM 29.7531 -98.2967 262° West 303 349 6,800 -1,538 Descending Houston Center
Tue 09:17:12 AM 29.7519 -98.3544 269° West 298 343 6,000 -814 Descending Houston Center
Tue 09:17:34 AM 29.7506 -98.3822 267° West 291 335 6,000 -100 Level Houston Center
Tue 09:18:12 AM 29.7508 -98.4339 270° West 231 266 5,900 -677 Descending Houston Center
Tue 09:18:36 AM 29.7494 -98.4614 267° West 241 277 5,300 -1,315 Descending Houston Center
Tue 09:19:25 AM 29.7386 -98.5269 259° West 236 272 4,300 -1,161 Descending Houston Center
Tue 09:19:38 AM 29.7344 -98.5369 244° Southwest 236 272 4,100 -1,200 Descending Houston Center
Tue 09:20:20 AM 29.7006 -98.5725 222° Southwest 227 261 3,200 -1,180 Descending Houston Center
Tue 09:20:39 AM 29.6856 -98.5889 224° Southwest 224 258 2,900 -393 Descending Houston Center
Tue 09:21:21 AM 29.6628 -98.6178 228° Southwest 167 192 2,800 -97 Descending Houston Center
Tue 09:21:41 AM 29.6486 -98.6128 163° South 178 205 2,800  Level Houston Center
Tue 09:22:22 AM 29.6272 -98.5956 145° Southeast 133 153 2,800  Level Houston Center
Tue 09:22:43 AM 29.6203 -98.5850 127° Southeast 141 162 2,800 -222 Level Houston Center
Tue 09:23:16 AM 29.6036 -98.5672 137° Southeast 132 152 2,600 -492 Descending Houston Center
Tue 09:23:44 AM 29.5922 -98.5489 126° Southeast 139 160 2,300 -689 Descending Houston Center
Tue 09:24:17 AM 29.5794 -98.5339 134° Southeast 135 155 1,900 -677 Descending Houston Center
Tue 09:24:46 AM 29.5692 -98.5186 128° Southeast 130 150 1,600 -537 Descending Houston Center
Tue 09:25:24 AM 29.5558 -98.5031 135° Southeast 121 139 1,300 -677 Descending Houston Center
Tue 09:25:48 AM 29.5461 -98.4878 126° Southeast 121 139 900 -1,000 Descending Houston Center
Tue 09:27:00 AM 29.5333 -98.4667 146° Southeast  Level FlightAware Approximate
Tue 09:34:00 AM 29.5340 -98.4691 146° Southeast  Level Estimated

Login

Don't have an account? Register now (free) for customized features, flight alerts, and more!